createdAt,value
2018-01-07T00:00:29.676Z,985.00
2018-01-07T00:01:36.455Z,984.97
2018-01-07T00:02:43.200Z,985.07
2018-01-07T00:03:49.992Z,985.01
2018-01-07T00:04:56.732Z,985.08
2018-01-07T00:06:03.512Z,985.01
2018-01-07T00:07:10.231Z,985.09
2018-01-07T00:08:17.076Z,985.05
2018-01-07T00:09:23.851Z,985.06
2018-01-07T00:10:30.700Z,985.05
2018-01-07T00:11:37.520Z,984.99
2018-01-07T00:12:44.260Z,984.97
2018-01-07T00:13:51.004Z,984.99
2018-01-07T00:14:57.752Z,985.03
2018-01-07T00:16:04.485Z,984.99
2018-01-07T00:17:11.223Z,985.00
2018-01-07T00:18:17.987Z,985.04
2018-01-07T00:19:24.755Z,985.00
2018-01-07T00:20:31.512Z,984.99
2018-01-07T00:21:38.328Z,985.02
2018-01-07T00:22:45.088Z,985.07
2018-01-07T00:23:51.848Z,985.04
2018-01-07T00:24:58.588Z,985.05
2018-01-07T00:26:05.418Z,985.09
2018-01-07T00:27:12.188Z,985.06
2018-01-07T00:28:18.947Z,985.10
2018-01-07T00:29:25.816Z,985.12
2018-01-07T00:30:32.591Z,985.21
2018-01-07T00:31:41.597Z,985.23
2018-01-07T00:32:46.376Z,985.17
2018-01-07T00:33:53.172Z,985.23
2018-01-07T00:35:00.052Z,985.27
2018-01-07T00:36:06.835Z,985.19
2018-01-07T00:37:13.703Z,985.29
2018-01-07T00:38:20.491Z,985.21
2018-01-07T00:39:27.231Z,985.20
2018-01-07T00:40:34.004Z,985.20
2018-01-07T00:41:40.759Z,985.26
2018-01-07T00:42:47.608Z,985.16
2018-01-07T00:43:54.372Z,985.27
2018-01-07T00:45:01.184Z,985.29
2018-01-07T00:46:08.035Z,985.31
2018-01-07T00:47:14.810Z,985.29
2018-01-07T00:48:21.534Z,985.29
2018-01-07T00:49:28.373Z,985.37
2018-01-07T00:50:35.130Z,985.30
2018-01-07T00:51:41.867Z,985.30
2018-01-07T00:52:48.641Z,985.38
2018-01-07T00:53:55.407Z,985.40
2018-01-07T00:55:02.204Z,985.30
2018-01-07T00:56:08.973Z,985.34
2018-01-07T00:57:15.761Z,985.43
2018-01-07T00:58:22.641Z,985.43
2018-01-07T00:59:29.417Z,985.38
2018-01-07T01:00:36.183Z,985.45
2018-01-07T01:01:43.073Z,985.49
2018-01-07T01:02:49.861Z,985.42
2018-01-07T01:03:56.601Z,985.55
2018-01-07T01:05:03.346Z,985.53
2018-01-07T01:06:10.148Z,985.55
2018-01-07T01:07:16.867Z,985.59
2018-01-07T01:08:23.673Z,985.59
2018-01-07T01:09:30.747Z,985.64
2018-01-07T01:10:37.502Z,985.66
2018-01-07T01:11:44.347Z,985.66
2018-01-07T01:12:51.117Z,985.67
2018-01-07T01:13:57.843Z,985.66
2018-01-07T01:15:04.576Z,985.66
2018-01-07T01:16:11.423Z,985.64
2018-01-07T01:17:18.216Z,985.65
2018-01-07T01:18:25.030Z,985.62
2018-01-07T01:19:31.872Z,985.76
2018-01-07T01:20:38.628Z,985.73
2018-01-07T01:21:45.385Z,985.75
2018-01-07T01:22:52.169Z,985.70
2018-01-07T01:23:58.982Z,985.65
2018-01-07T01:25:05.818Z,985.71
2018-01-07T01:26:12.549Z,985.71
2018-01-07T01:27:19.375Z,985.70
2018-01-07T01:28:26.140Z,985.75
2018-01-07T01:29:32.880Z,985.79
2018-01-07T01:30:39.654Z,985.91
2018-01-07T01:31:46.479Z,985.87
2018-01-07T01:32:53.228Z,985.87
2018-01-07T01:34:00.029Z,985.95
2018-01-07T01:35:06.891Z,985.97
2018-01-07T01:36:13.635Z,986.03
2018-01-07T01:37:20.440Z,986.03
2018-01-07T01:38:27.194Z,986.06
2018-01-07T01:39:33.977Z,986.06
2018-01-07T01:40:40.743Z,986.02
2018-01-07T01:41:47.499Z,986.08
2018-01-07T01:42:54.376Z,986.07
2018-01-07T01:44:01.172Z,986.12
2018-01-07T01:45:07.936Z,986.12
2018-01-07T01:46:14.813Z,986.04
2018-01-07T01:47:21.567Z,986.15
2018-01-07T01:48:28.305Z,986.11
2018-01-07T01:49:35.056Z,986.16
2018-01-07T01:50:41.872Z,986.20
2018-01-07T01:51:48.620Z,986.21
2018-01-07T01:52:55.405Z,986.19
2018-01-07T01:54:02.132Z,986.32
2018-01-07T01:55:08.980Z,986.26
2018-01-07T01:56:15.757Z,986.23
2018-01-07T01:57:22.544Z,986.27
2018-01-07T01:58:29.370Z,986.37
2018-01-07T01:59:36.128Z,986.26
2018-01-07T02:00:42.914Z,986.33
2018-01-07T02:01:49.795Z,986.30
2018-01-07T02:02:56.534Z,986.34
2018-01-07T02:04:03.313Z,986.33
2018-01-07T02:05:10.074Z,986.23
2018-01-07T02:06:16.878Z,986.26
2018-01-07T02:07:23.606Z,986.27
2018-01-07T02:08:30.358Z,986.26
2018-01-07T02:09:37.110Z,986.22
2018-01-07T02:10:43.977Z,986.26
2018-01-07T02:11:50.768Z,986.26
2018-01-07T02:12:57.510Z,986.21
2018-01-07T02:14:04.253Z,986.20
2018-01-07T02:15:11.044Z,986.27
2018-01-07T02:16:17.856Z,986.22
2018-01-07T02:17:24.608Z,986.29
2018-01-07T02:18:31.476Z,986.23
2018-01-07T02:19:38.217Z,986.32
2018-01-07T02:20:45.158Z,986.28
2018-01-07T02:21:52.049Z,986.36
2018-01-07T02:22:58.763Z,986.38
2018-01-07T02:24:05.535Z,986.31
2018-01-07T02:25:12.365Z,986.37
2018-01-07T02:26:19.136Z,986.40
2018-01-07T02:27:25.886Z,986.43
2018-01-07T02:28:32.625Z,986.36
2018-01-07T02:29:39.492Z,986.38
2018-01-07T02:30:46.284Z,986.39
2018-01-07T02:31:53.033Z,986.32
2018-01-07T02:32:59.888Z,986.35
2018-01-07T02:34:06.701Z,986.37
2018-01-07T02:35:13.461Z,986.41
2018-01-07T02:36:20.247Z,986.39
2018-01-07T02:37:27.011Z,986.45
2018-01-07T02:38:33.815Z,986.42
2018-01-07T02:39:40.670Z,986.50
2018-01-07T02:40:47.447Z,986.48
2018-01-07T02:41:54.214Z,986.43
2018-01-07T02:43:01.122Z,986.48
2018-01-07T02:44:07.928Z,986.51
2018-01-07T02:45:14.902Z,986.49
2018-01-07T02:46:21.741Z,986.52
2018-01-07T02:47:28.676Z,986.52
2018-01-07T02:48:35.424Z,986.54
2018-01-07T02:49:42.193Z,986.57
2018-01-07T02:50:49.056Z,986.58
2018-01-07T02:51:55.820Z,986.56
2018-01-07T02:53:02.545Z,986.59
2018-01-07T02:54:09.315Z,986.61
2018-01-07T02:55:16.150Z,986.64
2018-01-07T02:56:22.897Z,986.59
2018-01-07T02:57:29.667Z,986.60
2018-01-07T02:58:36.402Z,986.54
2018-01-07T02:59:43.232Z,986.59
2018-01-07T03:00:50.058Z,986.65
2018-01-07T03:01:56.865Z,986.69
2018-01-07T03:03:03.640Z,986.72
2018-01-07T03:04:10.386Z,986.68
2018-01-07T03:05:17.097Z,986.70
2018-01-07T03:06:23.821Z,986.72
2018-01-07T03:07:30.561Z,986.66
2018-01-07T03:08:37.394Z,986.79
2018-01-07T03:09:44.134Z,986.79
2018-01-07T03:10:50.887Z,986.79
2018-01-07T03:11:57.619Z,986.79
2018-01-07T03:13:04.449Z,986.75
2018-01-07T03:14:11.192Z,986.75
2018-01-07T03:15:17.918Z,986.83
2018-01-07T03:16:24.666Z,986.82
2018-01-07T03:17:31.432Z,986.82
2018-01-07T03:18:38.238Z,986.90
2018-01-07T03:19:45.019Z,986.91
2018-01-07T03:20:51.815Z,986.97
2018-01-07T03:21:58.667Z,986.95
2018-01-07T03:23:05.465Z,986.93
2018-01-07T03:24:12.225Z,987.02
2018-01-07T03:25:19.098Z,986.95
2018-01-07T03:26:25.856Z,986.95
2018-01-07T03:27:32.693Z,987.02
2018-01-07T03:28:39.501Z,987.03
2018-01-07T03:29:46.255Z,987.09
2018-01-07T03:30:53.022Z,987.08
2018-01-07T03:31:59.763Z,986.99
2018-01-07T03:33:06.604Z,986.98
2018-01-07T03:34:13.397Z,987.03
2018-01-07T03:35:20.173Z,987.07
2018-01-07T03:36:27.032Z,987.03
2018-01-07T03:37:33.828Z,986.99
2018-01-07T03:38:40.651Z,986.95
2018-01-07T03:39:47.425Z,987.05
2018-01-07T03:40:54.249Z,987.05
2018-01-07T03:42:01.012Z,986.94
2018-01-07T03:43:07.877Z,987.00
2018-01-07T03:44:14.644Z,987.00
2018-01-07T03:45:21.417Z,987.06
2018-01-07T03:46:28.318Z,987.06
2018-01-07T03:47:35.144Z,987.01
2018-01-07T03:48:41.923Z,987.00
2018-01-07T03:49:48.813Z,987.03
2018-01-07T03:50:55.601Z,987.07
2018-01-07T03:52:02.383Z,987.00
2018-01-07T03:53:09.172Z,986.96
2018-01-07T03:54:15.976Z,987.02
2018-01-07T03:55:22.744Z,987.00
2018-01-07T03:56:29.528Z,987.00
2018-01-07T03:57:36.289Z,987.01
2018-01-07T03:58:43.052Z,986.98
2018-01-07T03:59:49.823Z,987.02
2018-01-07T04:00:56.584Z,987.03
2018-01-07T04:02:03.353Z,987.02
2018-01-07T04:03:10.176Z,987.03
2018-01-07T04:04:17.052Z,987.10
2018-01-07T04:05:23.914Z,987.01
2018-01-07T04:06:30.794Z,987.03
2018-01-07T04:07:37.588Z,986.95
2018-01-07T04:08:44.463Z,986.98
2018-01-07T04:09:51.232Z,986.98
2018-01-07T04:10:58.019Z,986.95
2018-01-07T04:12:04.797Z,986.96
2018-01-07T04:13:11.661Z,986.98
2018-01-07T04:14:18.479Z,987.00
2018-01-07T04:15:25.245Z,986.97
2018-01-07T04:16:32.075Z,987.01
2018-01-07T04:17:38.930Z,986.94
2018-01-07T04:18:45.849Z,986.91
2018-01-07T04:19:52.692Z,986.99
2018-01-07T04:20:59.622Z,986.98
2018-01-07T04:22:06.517Z,986.99
2018-01-07T04:23:13.413Z,987.01
2018-01-07T04:24:20.389Z,987.09
2018-01-07T04:25:28.408Z,987.05
2018-01-07T04:26:34.172Z,987.04
2018-01-07T04:27:40.974Z,987.02
2018-01-07T04:28:47.780Z,987.00
2018-01-07T04:29:54.620Z,987.04
2018-01-07T04:31:01.456Z,986.93
2018-01-07T04:32:08.264Z,986.93
2018-01-07T04:33:15.115Z,986.87
2018-01-07T04:34:22.015Z,986.86
2018-01-07T04:35:28.838Z,986.84
2018-01-07T04:36:35.658Z,986.81
2018-01-07T04:37:42.525Z,986.87
2018-01-07T04:38:49.405Z,986.91
2018-01-07T04:39:56.244Z,986.88
2018-01-07T04:41:03.065Z,986.92
2018-01-07T04:42:09.868Z,986.88
2018-01-07T04:43:16.668Z,986.89
2018-01-07T04:44:23.613Z,986.93
2018-01-07T04:45:30.493Z,986.97
2018-01-07T04:46:37.402Z,986.88
2018-01-07T04:47:44.173Z,986.94
2018-01-07T04:48:50.992Z,987.00
2018-01-07T04:49:57.849Z,986.90
2018-01-07T04:51:04.637Z,986.91
2018-01-07T04:52:11.457Z,986.81
2018-01-07T04:53:18.241Z,986.88
2018-01-07T04:54:25.030Z,986.89
2018-01-07T04:55:31.856Z,986.91
2018-01-07T04:56:38.699Z,986.94
2018-01-07T04:57:45.515Z,986.88
2018-01-07T04:58:52.575Z,986.99
2018-01-07T04:59:59.388Z,986.94
2018-01-07T05:01:06.281Z,986.94
2018-01-07T05:02:13.085Z,986.89
2018-01-07T05:03:19.856Z,986.93
2018-01-07T05:04:26.651Z,986.94
2018-01-07T05:05:33.428Z,987.00
2018-01-07T05:06:40.640Z,986.97
2018-01-07T05:07:46.957Z,986.99
2018-01-07T05:08:53.761Z,986.96
2018-01-07T05:10:00.641Z,986.95
2018-01-07T05:11:07.529Z,987.02
2018-01-07T05:12:14.296Z,986.99
2018-01-07T05:13:21.121Z,987.04
2018-01-07T05:14:27.925Z,987.04
2018-01-07T05:15:34.723Z,987.08
2018-01-07T05:16:41.512Z,987.19
2018-01-07T05:17:48.382Z,987.17
2018-01-07T05:18:55.233Z,987.06
2018-01-07T05:20:02.192Z,987.16
2018-01-07T05:21:09.110Z,987.22
2018-01-07T05:22:15.891Z,987.27
2018-01-07T05:23:22.700Z,987.20
2018-01-07T05:24:29.542Z,987.37
2018-01-07T05:25:36.341Z,987.27
2018-01-07T05:26:43.159Z,987.41
2018-01-07T05:27:49.914Z,987.29
2018-01-07T05:28:56.700Z,987.36
2018-01-07T05:30:03.499Z,987.35
2018-01-07T05:31:10.295Z,987.46
2018-01-07T05:32:17.117Z,987.45
2018-01-07T05:33:23.908Z,987.43
2018-01-07T05:34:30.716Z,987.38
2018-01-07T05:35:37.590Z,987.42
2018-01-07T05:36:44.450Z,987.44
2018-01-07T05:37:51.285Z,987.47
2018-01-07T05:38:58.097Z,987.51
2018-01-07T05:40:04.870Z,987.50
2018-01-07T05:41:11.712Z,987.57
2018-01-07T05:42:18.483Z,987.59
2018-01-07T05:43:25.229Z,987.61
2018-01-07T05:44:32.150Z,987.74
2018-01-07T05:45:38.982Z,987.73
2018-01-07T05:46:45.756Z,987.76
2018-01-07T05:47:52.588Z,987.74
2018-01-07T05:48:59.409Z,987.77
2018-01-07T05:50:06.233Z,987.83
2018-01-07T05:51:13.123Z,987.89
2018-01-07T05:52:19.897Z,987.81
2018-01-07T05:53:26.652Z,987.87
2018-01-07T05:54:33.564Z,987.92
2018-01-07T05:55:40.393Z,987.98
2018-01-07T05:56:47.245Z,987.92
2018-01-07T05:57:54.103Z,988.00
2018-01-07T05:59:00.881Z,988.01
2018-01-07T06:00:07.673Z,987.99
2018-01-07T06:01:14.513Z,987.96
2018-01-07T06:02:21.304Z,988.01
2018-01-07T06:03:28.085Z,988.04
2018-01-07T06:04:34.908Z,988.14
2018-01-07T06:05:41.666Z,988.03
2018-01-07T06:06:48.556Z,988.12
2018-01-07T06:07:55.309Z,988.12
2018-01-07T06:09:02.099Z,988.14
2018-01-07T06:10:09.001Z,988.21
2018-01-07T06:11:16.136Z,988.22
2018-01-07T06:12:22.996Z,988.22
2018-01-07T06:13:29.793Z,988.19
2018-01-07T06:14:36.545Z,988.27
2018-01-07T06:15:43.311Z,988.27
2018-01-07T06:16:50.108Z,988.28
2018-01-07T06:17:56.953Z,988.19
2018-01-07T06:19:03.745Z,988.22
2018-01-07T06:20:10.508Z,988.29
2018-01-07T06:21:17.342Z,988.28
2018-01-07T06:22:24.193Z,988.31
2018-01-07T06:23:31.076Z,988.28
2018-01-07T06:24:37.836Z,988.37
2018-01-07T06:25:44.593Z,988.18
2018-01-07T06:26:51.337Z,988.32
2018-01-07T06:27:58.151Z,988.29
2018-01-07T06:29:04.907Z,988.30
2018-01-07T06:30:11.753Z,988.38
2018-01-07T06:31:18.525Z,988.39
2018-01-07T06:32:25.285Z,988.37
2018-01-07T06:33:32.118Z,988.39
2018-01-07T06:34:38.961Z,988.38
2018-01-07T06:35:45.680Z,988.43
2018-01-07T06:36:52.444Z,988.40
2018-01-07T06:37:59.250Z,988.55
2018-01-07T06:39:06.026Z,988.43
2018-01-07T06:40:12.835Z,988.44
2018-01-07T06:41:19.573Z,988.55
2018-01-07T06:42:26.416Z,988.65
2018-01-07T06:43:33.197Z,988.59
2018-01-07T06:44:39.945Z,988.61
2018-01-07T06:45:46.808Z,988.64
2018-01-07T06:46:53.548Z,988.64
2018-01-07T06:48:00.256Z,988.63
2018-01-07T06:49:07.064Z,988.55
2018-01-07T06:50:13.868Z,988.70
2018-01-07T06:51:20.620Z,988.69
2018-01-07T06:52:27.469Z,988.73
2018-01-07T06:53:34.292Z,988.78
2018-01-07T06:54:41.056Z,988.70
2018-01-07T06:55:47.863Z,988.73
2018-01-07T06:56:54.693Z,988.82
2018-01-07T06:58:01.473Z,988.79
2018-01-07T06:59:08.273Z,988.77
2018-01-07T07:00:15.088Z,988.78
2018-01-07T07:01:21.872Z,988.85
2018-01-07T07:02:28.705Z,988.82
2018-01-07T07:03:35.540Z,988.86
2018-01-07T07:04:42.341Z,988.90
2018-01-07T07:05:49.132Z,988.83
2018-01-07T07:06:55.976Z,988.85
2018-01-07T07:08:02.773Z,988.84
2018-01-07T07:09:09.557Z,988.80
2018-01-07T07:10:16.379Z,988.94
2018-01-07T07:11:23.201Z,988.93
2018-01-07T07:12:30.035Z,988.90
2018-01-07T07:13:36.810Z,988.88
2018-01-07T07:14:43.596Z,989.03
2018-01-07T07:15:50.443Z,988.93
2018-01-07T07:16:57.230Z,988.98
2018-01-07T07:18:04.125Z,988.97
2018-01-07T07:19:11.005Z,989.05
2018-01-07T07:20:17.844Z,989.12
2018-01-07T07:21:24.597Z,989.18
2018-01-07T07:22:31.421Z,989.20
2018-01-07T07:23:38.193Z,989.25
2018-01-07T07:24:44.969Z,989.19
2018-01-07T07:25:51.868Z,989.34
2018-01-07T07:26:58.680Z,989.30
2018-01-07T07:28:05.510Z,989.44
2018-01-07T07:29:12.304Z,989.39
2018-01-07T07:30:19.209Z,989.42
2018-01-07T07:31:26.077Z,989.42
2018-01-07T07:32:32.918Z,989.45
2018-01-07T07:33:39.850Z,989.47
2018-01-07T07:34:46.823Z,989.45
2018-01-07T07:35:53.634Z,989.52
2018-01-07T07:37:00.438Z,989.55
2018-01-07T07:38:07.280Z,989.54
2018-01-07T07:39:14.074Z,989.57
2018-01-07T07:40:21.043Z,989.55
2018-01-07T07:41:27.988Z,989.62
2018-01-07T07:42:34.778Z,989.62
2018-01-07T07:43:41.601Z,989.67
2018-01-07T07:44:48.353Z,989.68
2018-01-07T07:45:55.140Z,989.60
2018-01-07T07:47:01.886Z,989.59
2018-01-07T07:48:08.713Z,989.65
2018-01-07T07:49:15.514Z,989.64
2018-01-07T07:50:22.323Z,989.68
2018-01-07T07:51:29.113Z,989.64
2018-01-07T07:52:35.876Z,989.70
2018-01-07T07:53:42.630Z,989.71
2018-01-07T07:54:49.504Z,989.77
2018-01-07T07:55:56.304Z,989.74
2018-01-07T07:57:03.060Z,989.80
2018-01-07T07:58:09.935Z,989.80
2018-01-07T07:59:16.738Z,989.79
2018-01-07T08:00:23.453Z,989.80
2018-01-07T08:01:30.196Z,989.82
2018-01-07T08:02:37.025Z,989.80
2018-01-07T08:03:43.850Z,989.78
2018-01-07T08:04:50.717Z,989.79
2018-01-07T08:05:57.480Z,989.88
2018-01-07T08:07:04.212Z,989.90
2018-01-07T08:08:10.978Z,989.79
2018-01-07T08:09:17.744Z,989.87
2018-01-07T08:10:24.526Z,989.84
2018-01-07T08:11:31.285Z,989.94
2018-01-07T08:12:38.056Z,989.92
2018-01-07T08:13:44.872Z,989.92
2018-01-07T08:14:51.706Z,990.02
2018-01-07T08:15:58.761Z,989.98
2018-01-07T08:17:05.507Z,990.08
2018-01-07T08:18:12.278Z,990.02
2018-01-07T08:19:19.152Z,990.09
2018-01-07T08:20:25.913Z,989.98
2018-01-07T08:21:32.725Z,990.06
2018-01-07T08:22:39.572Z,990.03
2018-01-07T08:23:46.334Z,990.00
2018-01-07T08:24:53.141Z,990.02
2018-01-07T08:26:00.024Z,990.04
2018-01-07T08:27:06.840Z,990.05
2018-01-07T08:28:13.666Z,990.08
2018-01-07T08:29:20.510Z,990.06
2018-01-07T08:30:28.332Z,989.99
2018-01-07T08:31:34.763Z,990.05
2018-01-07T08:32:41.664Z,990.07
2018-01-07T08:33:48.517Z,990.13
2018-01-07T08:34:55.398Z,990.19
2018-01-07T08:36:02.337Z,990.14
2018-01-07T08:37:09.241Z,990.23
2018-01-07T08:38:16.070Z,990.10
2018-01-07T08:39:22.929Z,990.13
2018-01-07T08:40:29.814Z,990.11
2018-01-07T08:41:36.616Z,990.30
2018-01-07T08:42:43.411Z,990.19
2018-01-07T08:43:50.216Z,990.16
2018-01-07T08:44:56.977Z,990.24
2018-01-07T08:46:03.780Z,990.28
2018-01-07T08:47:10.645Z,990.31
2018-01-07T08:48:17.422Z,990.23
2018-01-07T08:49:24.184Z,990.39
2018-01-07T08:50:31.046Z,990.36
2018-01-07T08:51:37.880Z,990.47
2018-01-07T08:52:44.760Z,990.47
2018-01-07T08:53:51.517Z,990.55
2018-01-07T08:54:58.276Z,990.49
2018-01-07T08:56:05.077Z,990.66
2018-01-07T08:57:11.860Z,990.59
2018-01-07T08:58:18.609Z,990.64
2018-01-07T08:59:25.386Z,990.64
2018-01-07T09:00:32.240Z,990.73
2018-01-07T09:01:39.020Z,990.68
2018-01-07T09:02:45.857Z,990.72
2018-01-07T09:03:52.673Z,990.83
2018-01-07T09:04:59.469Z,990.82
2018-01-07T09:06:06.244Z,990.92
2018-01-07T09:07:13.053Z,990.88
2018-01-07T09:08:19.812Z,990.91
2018-01-07T09:09:26.581Z,990.85
2018-01-07T09:10:33.329Z,990.94
2018-01-07T09:11:40.098Z,990.97
2018-01-07T09:12:46.904Z,990.96
2018-01-07T09:13:53.657Z,990.98
2018-01-07T09:15:00.500Z,990.95
2018-01-07T09:16:07.326Z,990.96
2018-01-07T09:17:14.106Z,991.07
2018-01-07T09:18:20.940Z,990.96
2018-01-07T09:19:27.735Z,991.04
2018-01-07T09:20:34.573Z,991.04
2018-01-07T09:21:41.357Z,991.07
2018-01-07T09:22:48.152Z,991.08
2018-01-07T09:23:55.000Z,991.01
2018-01-07T09:25:01.790Z,991.11
2018-01-07T09:26:08.684Z,991.04
2018-01-07T09:27:15.562Z,991.02
2018-01-07T09:28:22.361Z,991.13
2018-01-07T09:29:29.161Z,991.07
2018-01-07T09:30:35.964Z,991.14
2018-01-07T09:31:42.740Z,991.12
2018-01-07T09:32:49.507Z,991.07
2018-01-07T09:33:56.422Z,991.09
2018-01-07T09:35:03.214Z,991.10
2018-01-07T09:36:10.008Z,991.02
2018-01-07T09:37:16.845Z,991.13
2018-01-07T09:38:23.621Z,991.13
2018-01-07T09:39:30.380Z,991.08
2018-01-07T09:40:37.273Z,991.13
2018-01-07T09:41:44.054Z,991.16
2018-01-07T09:42:50.816Z,991.18
2018-01-07T09:43:57.685Z,991.20
2018-01-07T09:45:04.471Z,991.16
2018-01-07T09:46:11.274Z,991.21
2018-01-07T09:47:18.104Z,991.25
2018-01-07T09:48:24.960Z,991.30
2018-01-07T09:49:31.745Z,991.20
2018-01-07T09:50:38.520Z,991.23
2018-01-07T09:51:45.344Z,991.35
2018-01-07T09:52:52.374Z,991.25
2018-01-07T09:53:59.325Z,991.31
2018-01-07T09:55:06.129Z,991.27
2018-01-07T09:56:12.974Z,991.26
2018-01-07T09:57:19.949Z,991.25
2018-01-07T09:58:26.839Z,991.39
2018-01-07T09:59:33.677Z,991.40
2018-01-07T10:00:40.465Z,991.42
2018-01-07T10:01:47.427Z,991.50
2018-01-07T10:02:54.180Z,991.44
2018-01-07T10:04:00.942Z,991.43
2018-01-07T10:05:07.861Z,991.54
2018-01-07T10:06:14.662Z,991.50
2018-01-07T10:07:21.416Z,991.50
2018-01-07T10:08:28.268Z,991.52
2018-01-07T10:09:35.097Z,991.47
2018-01-07T10:10:42.048Z,991.57
2018-01-07T10:11:48.944Z,991.49
2018-01-07T10:12:55.851Z,991.42
2018-01-07T10:14:02.905Z,991.52
2018-01-07T10:15:09.487Z,991.44
2018-01-07T10:16:16.341Z,991.50
2018-01-07T10:17:23.592Z,991.40
2018-01-07T10:18:30.233Z,991.42
2018-01-07T10:19:37.427Z,991.45
2018-01-07T10:20:44.362Z,991.40
2018-01-07T10:21:51.237Z,991.45
2018-01-07T10:22:58.142Z,991.47
2018-01-07T10:24:04.905Z,991.39
2018-01-07T10:25:11.777Z,991.44
2018-01-07T10:26:18.563Z,991.43
2018-01-07T10:27:26.149Z,991.50
2018-01-07T10:28:32.380Z,991.54
2018-01-07T10:29:39.133Z,991.49
2018-01-07T10:30:45.932Z,991.48
2018-01-07T10:31:52.913Z,991.59
2018-01-07T10:32:59.968Z,991.44
2018-01-07T10:34:06.808Z,991.47
2018-01-07T10:35:13.572Z,991.38
2018-01-07T10:36:20.356Z,991.38
2018-01-07T10:37:27.105Z,991.28
2018-01-07T10:38:33.903Z,991.42
2018-01-07T10:39:40.609Z,991.41
2018-01-07T10:40:47.476Z,991.41
2018-01-07T10:41:54.252Z,991.43
2018-01-07T10:43:01.018Z,991.49
2018-01-07T10:44:07.890Z,991.54
2018-01-07T10:45:14.703Z,991.44
2018-01-07T10:46:21.573Z,991.59
2018-01-07T10:47:28.428Z,991.51
2018-01-07T10:48:35.294Z,991.45
2018-01-07T10:49:42.145Z,991.55
2018-01-07T10:50:49.013Z,991.42
2018-01-07T10:51:56.010Z,991.48
2018-01-07T10:53:02.839Z,991.47
2018-01-07T10:54:09.710Z,991.50
2018-01-07T10:55:16.497Z,991.55
2018-01-07T10:56:23.256Z,991.44
2018-01-07T10:57:30.121Z,991.47
2018-01-07T10:58:36.898Z,991.54
2018-01-07T10:59:43.772Z,991.52
2018-01-07T11:00:51.178Z,991.56
2018-01-07T11:01:57.582Z,991.45
2018-01-07T11:03:04.314Z,991.40
2018-01-07T11:04:11.049Z,991.42
2018-01-07T11:05:17.806Z,991.36
2018-01-07T11:06:24.592Z,991.36
2018-01-07T11:07:31.424Z,991.42
2018-01-07T11:08:38.208Z,991.34
2018-01-07T11:09:44.986Z,991.35
2018-01-07T11:10:51.820Z,991.35
2018-01-07T11:11:58.661Z,991.42
2018-01-07T11:13:05.413Z,991.27
2018-01-07T11:14:12.237Z,991.31
2018-01-07T11:15:18.980Z,991.25
2018-01-07T11:16:25.734Z,991.29
2018-01-07T11:17:32.519Z,991.39
2018-01-07T11:18:39.281Z,991.35
2018-01-07T11:19:46.022Z,991.41
2018-01-07T11:20:52.784Z,991.42
2018-01-07T11:21:59.528Z,991.35
2018-01-07T11:23:06.345Z,991.47
2018-01-07T11:24:13.088Z,991.31
2018-01-07T11:25:19.847Z,991.43
2018-01-07T11:26:26.592Z,991.41
2018-01-07T11:27:33.434Z,991.44
2018-01-07T11:28:40.178Z,991.44
2018-01-07T11:29:46.904Z,991.48
2018-01-07T11:30:53.664Z,991.48
2018-01-07T11:32:00.496Z,991.45
2018-01-07T11:33:07.188Z,991.46
2018-01-07T11:34:13.990Z,991.50
2018-01-07T11:35:20.768Z,991.48
2018-01-07T11:36:27.587Z,991.48
2018-01-07T11:37:34.361Z,991.48
2018-01-07T11:38:41.680Z,991.48
2018-01-07T11:39:47.968Z,991.52
2018-01-07T11:40:54.741Z,991.40
2018-01-07T11:42:01.478Z,991.38
2018-01-07T11:43:08.381Z,991.51
2018-01-07T11:44:15.345Z,991.40
2018-01-07T11:45:22.077Z,991.40
2018-01-07T11:46:28.848Z,991.37
2018-01-07T11:47:35.669Z,991.35
2018-01-07T11:48:42.464Z,991.31
2018-01-07T11:49:49.289Z,991.44
2018-01-07T11:50:56.165Z,991.19
2018-01-07T11:52:02.913Z,991.30
2018-01-07T11:53:09.692Z,991.21
2018-01-07T11:54:16.473Z,991.14
2018-01-07T11:55:23.280Z,991.09
2018-01-07T11:56:30.139Z,991.08
2018-01-07T11:57:36.906Z,991.03
2018-01-07T11:58:43.638Z,991.11
2018-01-07T11:59:50.575Z,991.03
2018-01-07T12:00:57.341Z,990.98
2018-01-07T12:02:04.109Z,990.99
2018-01-07T12:03:10.995Z,990.94
2018-01-07T12:04:17.828Z,990.92
2018-01-07T12:05:24.633Z,990.87
2018-01-07T12:06:32.517Z,990.88
2018-01-07T12:07:38.252Z,990.85
2018-01-07T12:08:44.995Z,990.89
2018-01-07T12:09:51.927Z,990.92
2018-01-07T12:10:58.695Z,990.94
2018-01-07T12:12:05.441Z,990.81
2018-01-07T12:13:12.199Z,990.73
2018-01-07T12:14:18.976Z,990.73
2018-01-07T12:15:25.715Z,990.67
2018-01-07T12:16:32.484Z,990.91
2018-01-07T12:17:39.214Z,990.65
2018-01-07T12:18:45.952Z,990.65
2018-01-07T12:19:52.741Z,990.68
2018-01-07T12:20:59.513Z,990.74
2018-01-07T12:22:06.308Z,990.68
2018-01-07T12:23:13.060Z,990.65
2018-01-07T12:24:19.851Z,990.66
2018-01-07T12:25:26.618Z,990.66
2018-01-07T12:26:33.361Z,990.60
2018-01-07T12:27:40.096Z,990.73
2018-01-07T12:28:46.804Z,990.77
2018-01-07T12:29:53.570Z,990.74
2018-01-07T12:31:00.553Z,990.86
2018-01-07T12:32:07.367Z,990.86
2018-01-07T12:33:14.129Z,990.83
2018-01-07T12:34:20.935Z,990.74
2018-01-07T12:35:27.668Z,990.82
2018-01-07T12:36:34.497Z,990.78
2018-01-07T12:37:41.295Z,990.84
2018-01-07T12:38:48.048Z,990.83
2018-01-07T12:39:54.917Z,990.83
2018-01-07T12:41:01.695Z,990.98
2018-01-07T12:42:08.473Z,990.96
2018-01-07T12:43:15.236Z,990.94
2018-01-07T12:44:22.004Z,990.97
2018-01-07T12:45:28.721Z,991.04
2018-01-07T12:46:35.513Z,990.94
2018-01-07T12:47:42.298Z,990.97
2018-01-07T12:48:49.106Z,990.98
2018-01-07T12:49:55.859Z,990.96
2018-01-07T12:51:02.585Z,991.00
2018-01-07T12:52:09.352Z,990.97
2018-01-07T12:53:16.252Z,990.95
2018-01-07T12:54:23.259Z,991.05
2018-01-07T12:55:30.133Z,991.05
2018-01-07T12:56:36.910Z,990.98
2018-01-07T12:57:43.786Z,991.10
2018-01-07T12:58:50.540Z,991.06
2018-01-07T12:59:57.317Z,991.09
2018-01-07T13:01:04.048Z,991.12
2018-01-07T13:02:10.853Z,991.12
2018-01-07T13:03:17.600Z,991.21
2018-01-07T13:04:24.359Z,991.18
2018-01-07T13:05:31.265Z,991.13
2018-01-07T13:06:37.996Z,991.23
2018-01-07T13:07:44.736Z,991.13
2018-01-07T13:08:51.601Z,991.15
2018-01-07T13:09:58.384Z,991.20
2018-01-07T13:11:05.120Z,991.20
2018-01-07T13:12:11.903Z,991.16
2018-01-07T13:13:18.680Z,991.11
2018-01-07T13:14:25.520Z,991.18
2018-01-07T13:15:32.284Z,991.08
2018-01-07T13:16:39.000Z,991.09
2018-01-07T13:17:45.752Z,991.16
2018-01-07T13:18:52.528Z,991.07
2018-01-07T13:19:59.513Z,991.10
2018-01-07T13:21:06.445Z,991.05
2018-01-07T13:22:13.221Z,991.06
2018-01-07T13:23:19.996Z,990.98
2018-01-07T13:24:26.780Z,991.05
2018-01-07T13:25:33.578Z,990.94
2018-01-07T13:26:40.368Z,991.01
2018-01-07T13:27:47.197Z,991.03
2018-01-07T13:28:53.965Z,990.97
2018-01-07T13:30:00.739Z,990.99
2018-01-07T13:31:07.591Z,991.06
2018-01-07T13:32:14.318Z,991.04
2018-01-07T13:33:21.144Z,991.03
2018-01-07T13:34:28.104Z,990.96
2018-01-07T13:35:34.885Z,990.93
2018-01-07T13:36:41.652Z,990.89
2018-01-07T13:37:48.479Z,990.88
2018-01-07T13:38:55.232Z,990.88
2018-01-07T13:40:01.970Z,990.86
2018-01-07T13:41:08.708Z,990.87
2018-01-07T13:42:15.412Z,990.88
2018-01-07T13:43:22.212Z,990.88
2018-01-07T13:44:28.940Z,990.84
2018-01-07T13:45:35.674Z,990.88
2018-01-07T13:46:42.465Z,990.82
2018-01-07T13:47:49.272Z,990.85
2018-01-07T13:48:56.024Z,990.90
2018-01-07T13:50:02.828Z,990.85
2018-01-07T13:51:09.521Z,990.85
2018-01-07T13:52:16.308Z,991.00
2018-01-07T13:53:23.072Z,990.95